Time;durP1;ratioP1;P1;durP2;ratioP2;P2;SDS_P1;SDS_P2;PMS_P1;PMS_P2;Temp;Humidity;BMP_temperature;BMP_pressure;BME280_temperature;BME280_humidity;BME280_pressure;Samples;Min_cycle;Max_cycle;Signal;HPM_P1;HPM_P2
2023/04/24 00:01:29;;;;;;;;;;;;;;;;;;7570878;23;19920;-81
2023/04/24 00:04:31;;;;;;;;;;;;;;;;;;7597687;23;19912;-80
2023/04/24 00:07:31;;;;;;;;;;;;;;;;;;7596863;23;19919;-80
2023/04/24 00:10:31;;;;;;;;;;;;;;;;;;7597249;23;19909;-81
2023/04/24 00:13:31;;;;;;;;;;;;;;;;;;7596736;23;19919;-81
2023/04/24 00:16:32;;;;;;;;;;;;;;;;;;7597025;23;19908;-81
2023/04/24 00:19:32;;;;;;;;;;;;;;;;;;7597517;23;19912;-78
2023/04/24 00:22:32;;;;;;;;;;;;;;;;;;7596449;23;19901;-77
2023/04/24 00:25:34;;;;;;;;;;;;;;;;;;7596294;23;19908;-78
2023/04/24 00:28:34;;;;;;;;;;;;;;;;;;7596906;23;19904;-78
2023/04/24 00:31:35;;;;;;;;;;;;;;;;;;7597304;23;19975;-82
2023/04/24 00:34:35;;;;;;;;;;;;;;;;;;7596477;23;19916;-81
2023/04/24 00:37:36;;;;;;;;;;;;;;;;;;7597281;23;20238;-82
2023/04/24 00:40:36;;;;;;;;;;;;;;;;;;7597122;23;19923;-81
2023/04/24 00:43:36;;;;;;;;;;;;;;;;;;7597363;23;19908;-81
2023/04/24 00:46:36;;;;;;;;;;;;;;;;;;7597442;23;19979;-82
2023/04/24 00:49:36;;;;;;;;;;;;;;;;;;7597599;23;20006;-81
2023/04/24 00:52:36;;;;;;;;;;;;;;;;;;7596389;23;19943;-82
2023/04/24 00:55:37;;;;;;;;;;;;;;;;;;7571138;23;19905;-81
2023/04/24 00:58:37;;;;;;;;;;;;;;;;;;7596755;23;19928;-81
2023/04/24 01:01:37;;;;;;;;;;;;;;;;;;7597871;23;19927;-82
2023/04/24 01:04:37;;;;;;;;;;;;;;;;;;7570589;23;20297;-82
2023/04/24 01:07:37;;;;;;;;;;;;;;;;;;7596933;23;19905;-81
2023/04/24 01:10:37;;;;;;;;;;;;;;;;;;7596905;23;19912;-81
2023/04/24 01:13:37;;;;;;;;;;;;;;;;;;7596174;23;19932;-81
2023/04/24 01:16:38;;;;;;;;;;;;;;;;;;7595945;23;20377;-81
2023/04/24 01:19:39;;;;;;;;;;;;;;;;;;7595117;23;19985;-82
2023/04/24 01:22:41;;;;;;;;;;;;;;;;;;7596461;23;19901;-81
2023/04/24 01:25:41;;;;;;;;;;;;;;;;;;7595801;23;19904;-82
2023/04/24 01:28:41;;;;;;;;;;;;;;;;;;7596716;23;19951;-82
2023/04/24 01:31:41;;;;;;;;;;;;;;;;;;7596484;23;20344;-82
2023/04/24 01:34:41;;;;;;;;;;;;;;;;;;7596145;23;19944;-81
2023/04/24 01:37:41;;;;;;;;;;;;;;;;;;7596230;23;20313;-82
2023/04/24 01:40:41;;;;;;;;;;;;;;;;;;7596277;23;19905;-82
2023/04/24 01:43:41;;;;;;;;;;;;;;;;;;7605278;23;19951;-83
2023/04/24 01:46:42;;;;;;;;;;;;;;;;;;7597236;23;19901;-84
2023/04/24 01:49:42;;;;;;;;;;;;;;;;;;7596594;23;20226;-83
2023/04/24 01:52:42;;;;;;;;;;;;;;;;;;7595934;23;20356;-80
2023/04/24 01:55:42;;;;;;;;;;;;;;;;;;7596251;23;19912;-81
2023/04/24 01:58:42;;;;;;;;;;;;;;;;;;7595592;23;20237;-83
2023/04/24 02:01:42;;;;;;;;;;;;;;;;;;7596904;23;19905;-83
2023/04/24 02:04:43;;;;;;;;;;;;;;;;;;7596625;23;19905;-83
2023/04/24 02:07:43;;;;;;;;;;;;;;;;;;7571288;23;19904;-82
2023/04/24 02:10:44;;;;;;;;;;;;;;;;;;7596674;23;20348;-79
2023/04/24 02:13:44;;;;;;;;;;;;;;;;;;7596557;23;20291;-78
2023/04/24 02:16:44;;;;;;;;;;;;;;;;;;7596096;23;20325;-79
2023/04/24 02:19:44;;;;;;;;;;;;;;;;;;7595751;23;19905;-77
2023/04/24 02:22:44;;;;;;;;;;;;;;;;;;7595971;23;19958;-77
2023/04/24 02:25:45;;;;;;;;;;;;;;;;;;7569960;23;20296;-77
2023/04/24 02:28:45;;;;;;;;;;;;;;;;;;7596424;23;19911;-78
2023/04/24 02:31:46;;;;;;;;;;;;;;;;;;7596061;23;19905;-78
2023/04/24 02:34:46;;;;;;;;;;;;;;;;;;7596075;23;20325;-78
2023/04/24 02:37:46;;;;;;;;;;;;;;;;;;7595820;23;19905;-77
2023/04/24 02:40:46;;;;;;;;;;;;;;;;;;7595839;23;19951;-78
2023/04/24 02:43:46;;;;;;;;;;;;;;;;;;7596271;23;19927;-77
2023/04/24 02:46:47;;;;;;;;;;;;;;;;;;7569975;23;19901;-78
2023/04/24 02:49:47;;;;;;;;;;;;;;;;;;7594640;23;19909;-78
2023/04/24 02:52:47;;;;;;;;;;;;;;;;;;7595388;23;20210;-78
2023/04/24 02:55:47;;;;;;;;;;;;;;;;;;7595735;23;19905;-78
2023/04/24 02:58:47;;;;;;;;;;;;;;;;;;7596245;23;19908;-78
2023/04/24 03:01:48;;;;;;;;;;;;;;;;;;7595450;23;19959;-77
2023/04/24 03:04:49;;;;;;;;;;;;;;;;;;7595674;23;19909;-78
2023/04/24 03:07:49;;;;;;;;;;;;;;;;;;7595746;23;19909;-77
2023/04/24 03:10:49;;;;;;;;;;;;;;;;;;7595317;23;19909;-77
2023/04/24 03:13:49;;;;;;;;;;;;;;;;;;7595225;23;19913;-77
2023/04/24 03:16:51;;;;;;;;;;;;;;;;;;7595610;23;19905;-77
2023/04/24 03:19:51;;;;;;;;;;;;;;;;;;7595914;23;19978;-77
2023/04/24 03:22:51;;;;;;;;;;;;;;;;;;7595663;23;19995;-76
2023/04/24 03:25:52;;;;;;;;;;;;;;;;;;7594748;23;19905;-77
2023/04/24 03:28:52;;;;;;;;;;;;;;;;;;7567822;23;19901;-77
2023/04/24 03:31:52;;;;;;;;;;;;;;;;;;7594213;23;19905;-77
2023/04/24 03:34:52;;;;;;;;;;;;;;;;;;7594577;23;19916;-77
2023/04/24 03:37:52;;;;;;;;;;;;;;;;;;7594175;23;20270;-77
2023/04/24 03:40:52;;;;;;;;;;;;;;;;;;7593966;23;20321;-76
2023/04/24 03:43:52;;;;;;;;;;;;;;;;;;7594793;23;19901;-77
2023/04/24 03:46:53;;;;;;;;;;;;;;;;;;7594315;23;19905;-77
2023/04/24 03:49:55;;;;;;;;;;;;;;;;;;7594448;23;19905;-77
2023/04/24 03:52:55;;;;;;;;;;;;;;;;;;7594294;23;20321;-77
2023/04/24 03:55:55;;;;;;;;;;;;;;;;;;7593866;23;19912;-77
2023/04/24 03:58:56;;;;;;;;;;;;;;;;;;7594452;23;19978;-78
2023/04/24 04:01:56;;;;;;;;;;;;;;;;;;7594792;23;19901;-77
2023/04/24 04:04:56;;;;;;;;;;;;;;;;;;7569604;23;19905;-78
2023/04/24 04:07:56;;;;;;;;;;;;;;;;;;7596603;23;19909;-78
2023/04/24 04:10:56;;;;;;;;;;;;;;;;;;7596333;23;19999;-78
2023/04/24 04:13:56;;;;;;;;;;;;;;;;;;7596273;23;19913;-78
2023/04/24 04:16:56;;;;;;;;;;;;;;;;;;7571103;23;19900;-78
2023/04/24 04:19:57;;;;;;;;;;;;;;;;;;7570476;23;19912;-79
2023/04/24 04:22:57;;;;;;;;;;;;;;;;;;7571000;23;20344;-79
2023/04/24 04:25:57;;;;;;;;;;;;;;;;;;7597106;23;19901;-79
2023/04/24 04:28:57;;;;;;;;;;;;;;;;;;7570411;23;19904;-79
2023/04/24 04:31:57;;;;;;;;;;;;;;;;;;7570681;23;19976;-79
2023/04/24 04:34:58;;;;;;;;;;;;;;;;;;7596607;23;19909;-79
2023/04/24 04:37:58;;;;;;;;;;;;;;;;;;7596184;23;19999;-79
2023/04/24 04:40:58;;;;;;;;;;;;;;;;;;7596904;23;19909;-79
2023/04/24 04:44:00;;;;;;;;;;;;;;;;;;7596411;23;19916;-77
2023/04/24 04:47:03;;;;;;;;;;;;;;;;;;7596636;23;19972;-77
2023/04/24 04:50:03;;;;;;;;;;;;;;;;;;7596786;23;19919;-76
2023/04/24 04:53:05;;;;;;;;;;;;;;;;;;7596129;23;19944;-77
2023/04/24 04:56:05;;;;;;;;;;;;;;;;;;7596313;23;20303;-76
2023/04/24 04:59:07;;;;;;;;;;;;;;;;;;7596397;23;19911;-77
2023/04/24 05:02:07;;;;;;;;;;;;;;;;;;7596444;23;19905;-77
2023/04/24 05:05:08;;;;;;;;;;;;;;;;;;7596400;23;19958;-77
2023/04/24 05:08:08;;;;;;;;;;;;;;;;;;7595559;23;19908;-76
2023/04/24 05:11:08;;;;;;;;;;;;;;;;;;7595873;23;19949;-77
2023/04/24 05:14:08;;;;;;;;;;;;;;;;;;7569490;23;19913;-77
2023/04/24 05:17:08;;;;;;;;;;;;;;;;;;7596629;23;19954;-77
2023/04/24 05:20:09;;;;;;;;;;;;;;;;;;7596389;23;19911;-77
2023/04/24 05:23:09;;;;;;;;;;;;;;;;;;7595957;23;19908;-77
2023/04/24 05:26:10;;;;;;;;;;;;;;;;;;7595805;23;19901;-77
2023/04/24 05:29:10;;;;;;;;;;;;;;;;;;7596197;23;19905;-77
2023/04/24 05:32:10;;;;;;;;;;;;;;;;;;7567791;23;19983;-77
2023/04/24 05:35:10;;;;;;;;;;;;;;;;;;7595641;23;19996;-77
2023/04/24 05:38:10;;;;;;;;;;;;;;;;;;7595735;23;19979;-77
2023/04/24 05:41:10;;;;;;;;;;;;;;;;;;7595450;23;19905;-78
2023/04/24 05:44:10;;;;;;;;;;;;;;;;;;7596402;23;19901;-78
2023/04/24 05:47:10;;;;;;;;;;;;;;;;;;7569406;23;19904;-78
2023/04/24 05:50:11;;;;;;;;;;;;;;;;;;7596524;23;19975;-78
2023/04/24 05:53:12;;;;;;;;;;;;;;;;;;7595776;23;19920;-78
2023/04/24 05:56:12;;;;;;;;;;;;;;;;;;7591651;23;19901;-78
2023/04/24 05:59:12;;;;;;;;;;;;;;;;;;7567841;23;20376;-77
2023/04/24 06:02:12;;;;;;;;;;;;;;;;;;7594281;23;19944;-78
2023/04/24 06:05:12;;;;;;;;;;;;;;;;;;7595868;23;19936;-78
2023/04/24 06:08:12;;;;;;;;;;;;;;;;;;7594833;23;19983;-78
2023/04/24 06:11:12;;;;;;;;;;;;;;;;;;7595360;23;19913;-78
2023/04/24 06:14:12;;;;;;;;;;;;;;;;;;7595600;23;19913;-78
2023/04/24 06:17:13;;;;;;;;;;;;;;;;;;7595689;23;19901;-77
2023/04/24 06:20:13;;;;;;;;;;;;;;;;;;7567935;23;19932;-77
2023/04/24 06:23:13;;;;;;;;;;;;;;;;;;7569473;23;19905;-77
2023/04/24 06:26:13;;;;;;;;;;;;;;;;;;7593992;23;19907;-77
2023/04/24 06:29:13;;;;;;;;;;;;;;;;;;7594959;23;19971;-77
2023/04/24 06:32:13;;;;;;;;;;;;;;;;;;7595065;23;19907;-77
2023/04/24 06:35:14;;;;;;;;;;;;;;;;;;7568643;23;19905;-77
2023/04/24 06:38:14;;;;;;;;;;;;;;;;;;7596030;23;19905;-77
2023/04/24 06:41:14;;;;;;;;;;;;;;;;;;7568892;23;19984;-77
2023/04/24 06:44:15;;;;;;;;;;;;;;;;;;7595766;23;19928;-77
2023/04/24 06:47:15;;;;;;;;;;;;;;;;;;7595166;23;19909;-77
2023/04/24 06:50:15;;;;;;;;;;;;;;;;;;7596540;23;19905;-81
2023/04/24 06:53:15;;;;;;;;;;;;;;;;;;7573227;23;20241;-81
2023/04/24 06:56:15;;;;;;;;;;;;;;;;;;7607096;23;19931;-80
2023/04/24 06:59:15;;;;;;;;;;;;;;;;;;7606399;23;19905;-81
2023/04/24 07:02:15;;;;;;;;;;;;;;;;;;7603510;23;19927;-81
2023/04/24 07:05:19;;;;;;;;;;;;;;;;;;7599266;23;19909;-82
2023/04/24 07:08:21;;;;;;;;;;;;;;;;;;7595449;23;19909;-82
2023/04/24 07:11:22;;;;;;;;;;;;;;;;;;7594703;23;20222;-83
2023/04/24 07:14:22;;;;;;;;;;;;;;;;;;7594944;23;19944;-82
2023/04/24 07:17:22;;;;;;;;;;;;;;;;;;7595339;23;19900;-82
2023/04/24 07:20:22;;;;;;;;;;;;;;;;;;7594698;23;19919;-82
2023/04/24 07:23:22;;;;;;;;;;;;;;;;;;7592931;23;19924;-82
2023/04/24 07:26:22;;;;;;;;;;;;;;;;;;7593537;23;19946;-82
2023/04/24 07:29:22;;;;;;;;;;;;;;;;;;7595270;23;20270;-81
2023/04/24 07:32:22;;;;;;;;;;;;;;;;;;7569120;23;19905;-81
2023/04/24 07:35:25;;;;;;;;;;;;;;;;;;7595568;23;19944;-82
2023/04/24 07:38:25;;;;;;;;;;;;;;;;;;7595207;23;19933;-81
2023/04/24 07:41:27;;;;;;;;;;;;;;;;;;7596584;23;19905;-81
2023/04/24 07:44:27;;;;;;;;;;;;;;;;;;7595954;23;19901;-82
2023/04/24 07:47:27;;;;;;;;;;;;;;;;;;7596535;23;19907;-82
2023/04/24 07:50:27;;;;;;;;;;;;;;;;;;7596337;23;19923;-81
2023/04/24 07:53:27;;;;;;;;;;;;;;;;;;7596392;23;19927;-82
2023/04/24 07:56:30;;;;;;;;;;;;;;;;;;7569718;23;19975;-81
2023/04/24 07:59:31;;;;;;;;;;;;;;;;;;7596014;23;19905;-79
2023/04/24 08:02:31;;;;;;;;;;;;;;;;;;7596129;23;19928;-77
2023/04/24 08:05:31;;;;;;;;;;;;;;;;;;7596010;23;19912;-76
2023/04/24 08:08:31;;;;;;;;;;;;;;;;;;7596317;23;19912;-76
2023/04/24 08:11:31;;;;;;;;;;;;;;;;;;7595726;23;20317;-77
2023/04/24 08:14:31;;;;;;;;;;;;;;;;;;7596032;23;19908;-76
2023/04/24 08:17:32;;;;;;;;;;;;;;;;;;7596044;23;19923;-76
2023/04/24 08:20:32;;;;;;;;;;;;;;;;;;7596157;23;20317;-76
2023/04/24 08:23:32;;;;;;;;;;;;;;;;;;7596014;23;19901;-76
2023/04/24 08:26:32;;;;;;;;;;;;;;;;;;7596520;23;20203;-76
2023/04/24 08:29:32;;;;;;;;;;;;;;;;;;7596035;23;19901;-76
2023/04/24 08:32:32;;;;;;;;;;;;;;;;;;7595794;23;19900;-76
2023/04/24 08:35:32;;;;;;;;;;;;;;;;;;7595651;23;20313;-76
2023/04/24 08:38:33;;;;;;;;;;;;;;;;;;7596541;23;19979;-76
2023/04/24 08:41:33;;;;;;;;;;;;;;;;;;7596348;23;20248;-76
2023/04/24 08:44:34;;;;;;;;;;;;;;;;;;7596176;23;19919;-76
2023/04/24 08:47:34;;;;;;;;;;;;;;;;;;7594989;23;19905;-76
2023/04/24 08:50:34;;;;;;;;;;;;;;;;;;7594458;23;19907;-76
2023/04/24 08:53:35;;;;;;;;;;;;;;;;;;7594757;23;19908;-76
2023/04/24 08:56:37;;;;;;;;;;;;;;;;;;7594842;23;20353;-76
2023/04/24 08:59:37;;;;;;;;;;;;;;;;;;7594420;23;19904;-76
2023/04/24 09:02:37;;;;;;;;;;;;;;;;;;7594887;23;19979;-76
2023/04/24 09:05:38;;;;;;;;;;;;;;;;;;7595126;23;20321;-76
2023/04/24 09:08:38;;;;;;;;;;;;;;;;;;7595134;23;19905;-77
2023/04/24 09:11:38;;;;;;;;;;;;;;;;;;7593210;23;19988;-81
2023/04/24 09:14:42;;;;;;;;;;;;;;;;;;7566951;23;20226;-81
2023/04/24 09:17:42;;;;;;;;;;;;;;;;;;7591531;23;19927;-79
2023/04/24 09:20:42;;;;;;;;;;;;;;;;;;7591854;23;19901;-81
2023/04/24 09:23:42;;;;;;;;;;;;;;;;;;7591919;23;19908;-80
2023/04/24 09:26:42;;;;;;;;;;;;;;;;;;7592040;23;20334;-81
2023/04/24 09:29:43;;;;;;;;;;;;;;;;;;7592832;23;19971;-80
2023/04/24 09:32:43;;;;;;;;;;;;;;;;;;7593564;23;19905;-81
2023/04/24 09:35:43;;;;;;;;;;;;;;;;;;7592452;23;19916;-81
2023/04/24 09:38:43;;;;;;;;;;;;;;;;;;7593552;23;19932;-81
2023/04/24 09:41:44;;;;;;;;;;;;;;;;;;7593205;23;19908;-81
2023/04/24 09:44:44;;;;;;;;;;;;;;;;;;7594100;23;19905;-80
2023/04/24 09:47:45;;;;;;;;;;;;;;;;;;7595461;23;19901;-81
2023/04/24 09:50:45;;;;;;;;;;;;;;;;;;7591337;23;19908;-81
2023/04/24 09:53:45;;;;;;;;;;;;;;;;;;7592916;23;19905;-82
2023/04/24 09:56:46;;;;;;;;;;;;;;;;;;7593315;23;19905;-81
2023/04/24 09:59:46;;;;;;;;;;;;;;;;;;7593102;23;20235;-81
2023/04/24 10:02:46;;;;;;;;;;;;;;;;;;7593347;23;19901;-81
2023/04/24 10:05:46;;;;;;;;;;;;;;;;;;7591825;23;19936;-80
2023/04/24 10:08:46;;;;;;;;;;;;;;;;;;7565825;23;19955;-81
2023/04/24 10:11:46;;;;;;;;;;;;;;;;;;7531010;23;1451809;-81
2023/04/24 10:14:46;;;;;;;;;;;;;;;;;;7594946;23;19943;-80
2023/04/24 10:17:51;;;;;;;;;;;;;;;;;;7594873;23;20424;-80
2023/04/24 10:20:53;;;;;;;;;;;;;;;;;;7596409;23;19912;-80
2023/04/24 10:23:55;;;;;;;;;;;;;;;;;;7595623;23;19901;-80
2023/04/24 10:26:56;;;;;;;;;;;;;;;;;;7569947;23;19905;-80
2023/04/24 10:29:56;;;;;;;;;;;;;;;;;;7595436;23;20251;-81
2023/04/24 10:32:57;;;;;;;;;;;;;;;;;;7571449;23;20317;-81
2023/04/24 10:35:58;;;;;;;;;;;;;;;;;;7595951;23;19905;-80
2023/04/24 10:38:58;;;;;;;;;;;;;;;;;;7595442;23;19959;-80
2023/04/24 10:41:58;;;;;;;;;;;;;;;;;;7568706;23;20383;-81
2023/04/24 10:45:01;;;;;;;;;;;;;;;;;;7595473;23;20074;-80
2023/04/24 10:48:02;;;;;;;;;;;;;;;;;;7595309;23;19905;-81
2023/04/24 10:51:02;;;;;;;;;;;;;;;;;;7594542;23;20249;-80
2023/04/24 10:54:02;;;;;;;;;;;;;;;;;;7569141;23;20321;-80
2023/04/24 10:57:02;;;;;;;;;;;;;;;;;;7594771;23;20305;-80
2023/04/24 11:00:02;;;;;;;;;;;;;;;;;;7594260;23;19911;-80
2023/04/24 11:03:03;;;;;;;;;;;;;;;;;;7594628;23;19911;-80
2023/04/24 11:06:03;;;;;;;;;;;;;;;;;;7593660;23;19905;-80
2023/04/24 11:09:04;;;;;;;;;;;;;;;;;;7593590;23;19905;-80
2023/04/24 11:12:06;;;;;;;;;;;;;;;;;;7593597;23;20357;-80
2023/04/24 11:15:06;;;;;;;;;;;;;;;;;;7569474;23;19963;-80
2023/04/24 11:18:06;;;;;;;;;;;;;;;;;;7595522;23;20406;-80
2023/04/24 11:21:06;;;;;;;;;;;;;;;;;;7595784;23;19911;-79
2023/04/24 11:24:07;;;;;;;;;;;;;;;;;;7596645;23;20000;-80
2023/04/24 11:27:07;;;;;;;;;;;;;;;;;;7595647;23;19905;-80
2023/04/24 11:30:08;;;;;;;;;;;;;;;;;;7596137;23;19905;-76
2023/04/24 11:33:08;;;;;;;;;;;;;;;;;;7595860;23;19905;-77
2023/04/24 11:36:08;;;;;;;;;;;;;;;;;;7596785;23;19951;-77
2023/04/24 11:39:08;;;;;;;;;;;;;;;;;;7596641;23;19905;-77
2023/04/24 11:42:08;;;;;;;;;;;;;;;;;;7595986;23;20249;-77
2023/04/24 11:45:08;;;;;;;;;;;;;;;;;;7596690;23;19905;-77
2023/04/24 11:48:08;;;;;;;;;;;;;;;;;;7594342;23;19987;-77
2023/04/24 11:51:09;;;;;;;;;;;;;;;;;;7596285;23;20316;-77
2023/04/24 11:54:09;;;;;;;;;;;;;;;;;;7595957;23;19987;-77
2023/04/24 11:57:09;;;;;;;;;;;;;;;;;;7596376;23;20380;-75
2023/04/24 12:00:10;;;;;;;;;;;;;;;;;;7596474;23;20313;-76
2023/04/24 12:03:11;;;;;;;;;;;;;;;;;;7595507;23;20292;-76
2023/04/24 12:06:11;;;;;;;;;;;;;;;;;;7592087;23;19904;-76
2023/04/24 12:09:12;;;;;;;;;;;;;;;;;;7590876;23;20351;-77
2023/04/24 12:12:12;;;;;;;;;;;;;;;;;;7555760;23;19917;-76
2023/04/24 12:15:14;;;;;;;;;;;;;;;;;;7554691;23;19943;-76
2023/04/24 12:18:14;;;;;;;;;;;;;;;;;;7554062;23;20325;-76
2023/04/24 12:21:14;;;;;;;;;;;;;;;;;;7555154;23;19912;-77
2023/04/24 12:24:14;;;;;;;;;;;;;;;;;;7558917;23;19901;-76
2023/04/24 12:27:14;;;;;;;;;;;;;;;;;;7559828;23;19901;-77
2023/04/24 12:30:18;;;;;;;;;;;;;;;;;;7559178;23;19901;-76
2023/04/24 12:33:18;;;;;;;;;;;;;;;;;;7557406;23;19909;-77
2023/04/24 12:36:18;;;;;;;;;;;;;;;;;;7557783;23;20391;-77
2023/04/24 12:39:19;;;;;;;;;;;;;;;;;;7558896;23;20408;-80
2023/04/24 12:42:23;;;;;;;;;;;;;;;;;;7561204;23;19913;-81
2023/04/24 12:45:25;;;;;;;;;;;;;;;;;;7560057;23;19906;-80
2023/04/24 12:48:25;;;;;;;;;;;;;;;;;;7560136;23;20379;-80
2023/04/24 12:51:25;;;;;;;;;;;;;;;;;;7558813;23;19901;-80
2023/04/24 12:54:25;;;;;;;;;;;;;;;;;;7559267;23;19905;-80
2023/04/24 12:57:25;;;;;;;;;;;;;;;;;;7558596;23;20322;-80
2023/04/24 13:00:25;;;;;;;;;;;;;;;;;;7558790;23;19980;-80
2023/04/24 13:03:25;;;;;;;;;;;;;;;;;;7558894;23;19909;-81
2023/04/24 13:06:26;;;;;;;;;;;;;;;;;;7559433;23;19901;-80
2023/04/24 13:09:26;;;;;;;;;;;;;;;;;;7559639;23;19995;-80
2023/04/24 13:12:26;;;;;;;;;;;;;;;;;;7589207;23;19952;-81
2023/04/24 13:15:26;;;;;;;;;;;;;;;;;;7569829;23;19970;-80
2023/04/24 13:18:26;;;;;;;;;;;;;;;;;;7596089;23;19901;-81
2023/04/24 13:21:27;;;;;;;;;;;;;;;;;;7595766;23;19952;-80
2023/04/24 13:24:27;;;;;;;;;;;;;;;;;;7596443;23;19911;-81
2023/04/24 13:27:27;;;;;;;;;;;;;;;;;;7595376;23;19988;-80
2023/04/24 13:30:27;;;;;;;;;;;;;;;;;;7596990;23;19911;-81
2023/04/24 13:33:27;;;;;;;;;;;;;;;;;;7594875;23;20402;-80
2023/04/24 13:36:27;;;;;;;;;;;;;;;;;;7592471;23;19905;-81
2023/04/24 13:39:27;;;;;;;;;;;;;;;;;;7596353;23;19901;-81
2023/04/24 13:42:28;;;;;;;;;;;;;;;;;;7596033;23;19904;-81
2023/04/24 13:45:28;;;;;;;;;;;;;;;;;;7596241;23;19912;-81
2023/04/24 13:48:28;;;;;;;;;;;;;;;;;;7595532;23;19963;-81
2023/04/24 13:51:28;;;;;;;;;;;;;;;;;;7595942;23;19912;-81
2023/04/24 13:54:29;;;;;;;;;;;;;;;;;;7595953;23;19994;-81
2023/04/24 13:57:30;;;;;;;;;;;;;;;;;;7596521;23;19909;-81
2023/04/24 14:00:32;;;;;;;;;;;;;;;;;;7595919;23;19900;-81
2023/04/24 14:03:32;;;;;;;;;;;;;;;;;;7595744;23;20324;-80
2023/04/24 14:06:32;;;;;;;;;;;;;;;;;;7595552;23;19908;-80
2023/04/24 14:09:32;;;;;;;;;;;;;;;;;;7596090;23;19901;-81
2023/04/24 14:12:32;;;;;;;;;;;;;;;;;;7594105;23;20102;-79
2023/04/24 14:15:32;;;;;;;;;;;;;;;;;;7594387;23;19904;-79
2023/04/24 14:18:32;;;;;;;;;;;;;;;;;;7594488;23;19936;-79
2023/04/24 14:21:33;;;;;;;;;;;;;;;;;;7594165;23;19901;-80
2023/04/24 14:24:33;;;;;;;;;;;;;;;;;;7593432;23;20357;-79
2023/04/24 14:27:34;;;;;;;;;;;;;;;;;;7592931;23;20408;-80
2023/04/24 14:30:37;;;;;;;;;;;;;;;;;;7567414;23;19959;-79
2023/04/24 14:33:37;;;;;;;;;;;;;;;;;;7594646;23;19908;-79
2023/04/24 14:36:37;;;;;;;;;;;;;;;;;;7569468;23;20366;-79
2023/04/24 14:39:37;;;;;;;;;;;;;;;;;;7595004;23;19901;-80
2023/04/24 14:42:37;;;;;;;;;;;;;;;;;;7595240;23;19908;-80
2023/04/24 14:45:37;;;;;;;;;;;;;;;;;;7594958;23;19909;-79
2023/04/24 14:48:38;;;;;;;;;;;;;;;;;;7590514;23;19900;-79
2023/04/24 14:51:38;;;;;;;;;;;;;;;;;;7593683;23;19951;-79
2023/04/24 14:54:38;;;;;;;;;;;;;;;;;;7566002;23;20340;-79
2023/04/24 14:57:38;;;;;;;;;;;;;;;;;;7591403;23;20348;-80
2023/04/24 15:00:38;;;;;;;;;;;;;;;;;;7592680;23;19908;-77
2023/04/24 15:03:38;;;;;;;;;;;;;;;;;;7593217;23;20185;-77
2023/04/24 15:06:39;;;;;;;;;;;;;;;;;;7594417;23;19911;-78
2023/04/24 15:09:39;;;;;;;;;;;;;;;;;;7592012;23;19951;-77
2023/04/24 15:12:39;;;;;;;;;;;;;;;;;;7590612;23;19988;-77
2023/04/24 15:15:39;;;;;;;;;;;;;;;;;;7590792;23;19913;-77
2023/04/24 15:18:40;;;;;;;;;;;;;;;;;;7591573;23;19909;-77
2023/04/24 15:21:41;;;;;;;;;;;;;;;;;;7591838;23;19936;-77
2023/04/24 15:24:41;;;;;;;;;;;;;;;;;;7592181;23;19911;-77
2023/04/24 15:27:42;;;;;;;;;;;;;;;;;;7590700;23;19901;-77
2023/04/24 15:30:42;;;;;;;;;;;;;;;;;;7591531;23;19915;-77
2023/04/24 15:33:42;;;;;;;;;;;;;;;;;;7592238;23;19904;-77
2023/04/24 15:36:42;;;;;;;;;;;;;;;;;;7593332;23;20236;-77
2023/04/24 15:39:42;;;;;;;;;;;;;;;;;;7594322;23;19946;-77
2023/04/24 15:42:42;;;;;;;;;;;;;;;;;;7593984;23;20279;-77
2023/04/24 15:45:42;;;;;;;;;;;;;;;;;;7594466;23;20061;-78
2023/04/24 15:48:43;;;;;;;;;;;;;;;;;;7594538;23;19904;-78
2023/04/24 15:51:43;;;;;;;;;;;;;;;;;;7594502;23;19907;-77
2023/04/24 15:54:43;;;;;;;;;;;;;;;;;;7567743;23;19905;-77
2023/04/24 15:57:43;;;;;;;;;;;;;;;;;;7594016;23;19905;-78
2023/04/24 16:00:43;;;;;;;;;;;;;;;;;;7594126;23;19923;-78
2023/04/24 16:03:43;;;;;;;;;;;;;;;;;;7594997;23;19943;-77
2023/04/24 16:06:43;;;;;;;;;;;;;;;;;;7594396;23;19999;-77
2023/04/24 16:09:44;;;;;;;;;;;;;;;;;;7569899;23;19904;-80
2023/04/24 16:12:44;;;;;;;;;;;;;;;;;;7597316;23;20011;-81
2023/04/24 16:15:44;;;;;;;;;;;;;;;;;;7570480;23;19905;-80
2023/04/24 16:18:44;;;;;;;;;;;;;;;;;;7596229;23;19932;-81
2023/04/24 16:21:44;;;;;;;;;;;;;;;;;;7598293;23;19982;-80
2023/04/24 16:24:46;;;;;;;;;;;;;;;;;;7600640;23;19950;-80
2023/04/24 16:27:47;;;;;;;;;;;;;;;;;;7571670;23;19901;-80
2023/04/24 16:30:47;;;;;;;;;;;;;;;;;;7597009;23;19911;-81
2023/04/24 16:33:47;;;;;;;;;;;;;;;;;;7595704;23;19919;-81
2023/04/24 16:36:47;;;;;;;;;;;;;;;;;;7596010;23;19936;-80
2023/04/24 16:39:48;;;;;;;;;;;;;;;;;;7596427;23;19907;-81
2023/04/24 16:42:49;;;;;;;;;;;;;;;;;;7595428;23;19905;-81
2023/04/24 16:45:49;;;;;;;;;;;;;;;;;;7596103;23;19905;-81
2023/04/24 16:48:49;;;;;;;;;;;;;;;;;;7596124;23;19904;-81
2023/04/24 16:51:50;;;;;;;;;;;;;;;;;;7596128;23;19909;-81
2023/04/24 16:54:50;;;;;;;;;;;;;;;;;;7595295;23;19915;-81
2023/04/24 16:57:51;;;;;;;;;;;;;;;;;;7569367;23;19909;-81
2023/04/24 17:00:51;;;;;;;;;;;;;;;;;;7595899;23;19929;-81
2023/04/24 17:03:51;;;;;;;;;;;;;;;;;;7596237;23;19905;-81
2023/04/24 17:06:51;;;;;;;;;;;;;;;;;;7596172;23;19957;-81
2023/04/24 17:09:51;;;;;;;;;;;;;;;;;;7594659;23;19905;-81
2023/04/24 17:12:51;;;;;;;;;;;;;;;;;;7557799;23;19917;-80
2023/04/24 17:15:53;;;;;;;;;;;;;;;;;;7559980;23;19925;-81
2023/04/24 17:18:53;;;;;;;;;;;;;;;;;;7557238;23;19912;-80
2023/04/24 17:21:53;;;;;;;;;;;;;;;;;;7553403;23;19905;-77
2023/04/24 17:24:53;;;;;;;;;;;;;;;;;;7559537;23;20322;-77
2023/04/24 17:27:53;;;;;;;;;;;;;;;;;;7554004;23;19928;-77
2023/04/24 17:30:56;;;;;;;;;;;;;;;;;;7555588;23;20027;-77
2023/04/24 17:33:58;;;;;;;;;;;;;;;;;;7556196;23;19932;-78
2023/04/24 17:36:58;;;;;;;;;;;;;;;;;;7558003;23;19901;-77
2023/04/24 17:39:58;;;;;;;;;;;;;;;;;;7557438;23;19905;-77
2023/04/24 17:42:58;;;;;;;;;;;;;;;;;;7558441;23;19905;-77
2023/04/24 17:45:58;;;;;;;;;;;;;;;;;;7559417;23;19989;-77
2023/04/24 17:48:58;;;;;;;;;;;;;;;;;;7559728;23;19905;-77
2023/04/24 17:51:59;;;;;;;;;;;;;;;;;;7557888;23;19902;-77
2023/04/24 17:54:59;;;;;;;;;;;;;;;;;;7558072;23;19906;-77
2023/04/24 17:58:00;;;;;;;;;;;;;;;;;;7558670;23;20335;-77
2023/04/24 18:01:00;;;;;;;;;;;;;;;;;;7558642;23;19905;-77
2023/04/24 18:04:02;;;;;;;;;;;;;;;;;;7559171;23;19951;-77
2023/04/24 18:07:02;;;;;;;;;;;;;;;;;;7558485;23;19905;-77
2023/04/24 18:10:02;;;;;;;;;;;;;;;;;;7558611;23;19905;-77
2023/04/24 18:13:02;;;;;;;;;;;;;;;;;;7594017;23;19905;-77
2023/04/24 18:16:03;;;;;;;;;;;;;;;;;;7594023;23;19958;-77
2023/04/24 18:19:03;;;;;;;;;;;;;;;;;;7593330;23;19979;-77
2023/04/24 18:22:03;;;;;;;;;;;;;;;;;;7592080;23;19901;-77
2023/04/24 18:25:04;;;;;;;;;;;;;;;;;;7592075;23;19901;-77
2023/04/24 18:28:04;;;;;;;;;;;;;;;;;;7595531;23;19900;-77
2023/04/24 18:31:06;;;;;;;;;;;;;;;;;;7595844;23;19901;-77
2023/04/24 18:34:06;;;;;;;;;;;;;;;;;;7595172;23;20324;-77
2023/04/24 18:37:06;;;;;;;;;;;;;;;;;;7595400;23;19954;-77
2023/04/24 18:40:06;;;;;;;;;;;;;;;;;;7596500;23;20000;-77
2023/04/24 18:43:06;;;;;;;;;;;;;;;;;;7593642;23;20314;-77
2023/04/24 18:46:06;;;;;;;;;;;;;;;;;;7568748;23;19911;-77
2023/04/24 18:49:06;;;;;;;;;;;;;;;;;;7594864;23;20390;-77
2023/04/24 18:52:07;;;;;;;;;;;;;;;;;;7595869;23;20018;-77
2023/04/24 18:55:08;;;;;;;;;;;;;;;;;;7595693;23;19909;-78
2023/04/24 18:58:08;;;;;;;;;;;;;;;;;;7569847;23;19904;-78
2023/04/24 19:01:08;;;;;;;;;;;;;;;;;;7594609;23;20240;-77
2023/04/24 19:04:08;;;;;;;;;;;;;;;;;;7595873;23;19908;-77
2023/04/24 19:07:09;;;;;;;;;;;;;;;;;;7594634;23;20385;-78
2023/04/24 19:10:09;;;;;;;;;;;;;;;;;;7594271;23;19915;-78
2023/04/24 19:13:09;;;;;;;;;;;;;;;;;;7592563;23;19913;-78
2023/04/24 19:16:09;;;;;;;;;;;;;;;;;;7594988;23;19920;-78
2023/04/24 19:19:10;;;;;;;;;;;;;;;;;;7595705;23;19933;-78
2023/04/24 19:22:11;;;;;;;;;;;;;;;;;;7595345;23;20244;-78
2023/04/24 19:25:12;;;;;;;;;;;;;;;;;;7593290;23;20218;-78
2023/04/24 19:28:12;;;;;;;;;;;;;;;;;;7595565;23;19983;-78
2023/04/24 19:31:12;;;;;;;;;;;;;;;;;;7569876;23;19949;-78
2023/04/24 19:34:12;;;;;;;;;;;;;;;;;;7593302;23;19913;-76
2023/04/24 19:37:13;;;;;;;;;;;;;;;;;;7592026;23;20371;-77
2023/04/24 19:40:13;;;;;;;;;;;;;;;;;;7594550;23;19909;-82
2023/04/24 19:43:13;;;;;;;;;;;;;;;;;;7597695;23;19905;-82
2023/04/24 19:46:13;;;;;;;;;;;;;;;;;;7597704;23;19908;-83
2023/04/24 19:49:14;;;;;;;;;;;;;;;;;;7596972;23;19948;-83
2023/04/24 19:52:15;;;;;;;;;;;;;;;;;;7598062;23;20318;-83
2023/04/24 19:55:16;;;;;;;;;;;;;;;;;;7601198;23;19984;-83
2023/04/24 19:58:16;;;;;;;;;;;;;;;;;;7600011;23;19904;-81
2023/04/24 20:01:17;;;;;;;;;;;;;;;;;;7604238;23;20252;-82
2023/04/24 20:04:20;;;;;;;;;;;;;;;;;;7610864;23;19909;-80
2023/04/24 20:07:20;;;;;;;;;;;;;;;;;;7610974;23;19905;-80
2023/04/24 20:10:20;;;;;;;;;;;;;;;;;;7601979;23;19935;-82
2023/04/24 20:13:20;;;;;;;;;;;;;;;;;;7571483;23;19905;-81
2023/04/24 20:16:21;;;;;;;;;;;;;;;;;;7596891;23;20415;-81
2023/04/24 20:19:21;;;;;;;;;;;;;;;;;;7599418;23;20177;-83
2023/04/24 20:22:21;;;;;;;;;;;;;;;;;;7606898;23;19905;-81
2023/04/24 20:25:21;;;;;;;;;;;;;;;;;;7584043;23;19905;-80
2023/04/24 20:28:21;;;;;;;;;;;;;;;;;;7607938;23;19905;-82
2023/04/24 20:31:21;;;;;;;;;;;;;;;;;;7570748;23;19905;-82